createdAt,value
2023-04-15T00:01:02.619Z,8.35
2023-04-15T00:03:30.228Z,7.60
2023-04-15T00:05:58.584Z,8.82
2023-04-15T00:08:25.707Z,7.78
2023-04-15T00:10:52.797Z,8.05
2023-04-15T00:13:20.281Z,8.85
2023-04-15T00:15:48.033Z,8.75
2023-04-15T00:18:15.144Z,8.05
2023-04-15T00:20:42.366Z,7.05
2023-04-15T00:23:09.579Z,4.20
2023-04-15T00:25:36.698Z,5.50
2023-04-15T00:28:04.051Z,4.43
2023-04-15T00:30:31.745Z,4.57
2023-04-15T00:32:58.939Z,4.45
2023-04-15T00:35:26.529Z,7.57
2023-04-15T00:37:53.926Z,7.18
2023-04-15T00:40:24.648Z,7.97
2023-04-15T00:42:52.349Z,7.53
2023-04-15T00:45:19.799Z,7.35
2023-04-15T00:47:46.896Z,7.47
2023-04-15T00:50:14.145Z,7.70
2023-04-15T00:52:41.917Z,8.02
2023-04-15T00:55:09.235Z,8.27
2023-04-15T00:57:36.750Z,8.00
2023-04-15T01:00:05.726Z,7.03
2023-04-15T01:02:33.544Z,8.35
2023-04-15T01:05:00.951Z,7.90
2023-04-15T01:07:28.080Z,8.40
2023-04-15T01:09:55.625Z,9.18
2023-04-15T01:12:22.752Z,8.88
2023-04-15T01:14:50.032Z,6.90
2023-04-15T01:17:17.717Z,8.10
2023-04-15T01:19:44.865Z,8.35
2023-04-15T01:22:12.051Z,5.70
2023-04-15T01:24:39.909Z,8.13
2023-04-15T01:27:07.001Z,8.00
2023-04-15T01:29:37.537Z,6.93
2023-04-15T01:32:04.713Z,9.43
2023-04-15T01:34:33.027Z,7.55
2023-04-15T01:37:02.258Z,8.50
2023-04-15T01:39:29.421Z,7.60
2023-04-15T01:41:57.346Z,7.85
2023-04-15T01:44:24.471Z,8.15
2023-04-15T01:46:51.624Z,8.57
2023-04-15T01:49:18.998Z,7.72
2023-04-15T01:51:46.218Z,8.93
2023-04-15T01:54:13.286Z,8.70
2023-04-15T01:56:40.360Z,7.80
2023-04-15T01:59:07.581Z,8.30
2023-04-15T02:01:34.732Z,9.10
2023-04-15T02:04:01.845Z,8.13
2023-04-15T02:06:29.077Z,8.00
2023-04-15T02:08:56.180Z,9.15
2023-04-15T02:11:23.307Z,8.23
2023-04-15T02:13:50.408Z,7.18
2023-04-15T02:16:18.105Z,7.97
2023-04-15T02:18:45.898Z,7.20
2023-04-15T02:21:13.179Z,7.40
2023-04-15T02:23:40.471Z,7.00
2023-04-15T02:26:08.174Z,6.80
2023-04-15T02:28:35.872Z,7.20
2023-04-15T02:31:06.492Z,7.45
2023-04-15T02:33:33.657Z,7.95
2023-04-15T02:36:01.093Z,8.32
2023-04-15T02:38:28.208Z,6.75
2023-04-15T02:40:55.488Z,7.88
2023-04-15T02:43:22.637Z,7.82
2023-04-15T02:45:49.857Z,8.30
2023-04-15T02:48:19.404Z,8.38
2023-04-15T02:50:47.922Z,7.93
2023-04-15T02:53:15.445Z,6.40
2023-04-15T02:55:42.975Z,8.43
2023-04-15T02:58:10.265Z,7.93
2023-04-15T03:00:37.421Z,8.68
2023-04-15T03:03:05.663Z,7.72
2023-04-15T03:05:33.107Z,8.00
2023-04-15T03:08:01.232Z,8.23
2023-04-15T03:10:28.595Z,7.25
2023-04-15T03:12:55.974Z,7.97
2023-04-15T03:15:23.171Z,7.47
2023-04-15T03:17:50.660Z,8.15
2023-04-15T03:20:17.981Z,8.10
2023-04-15T03:22:45.066Z,8.55
2023-04-15T03:25:12.134Z,8.68
2023-04-15T03:27:39.492Z,10.45
2023-04-15T03:30:07.702Z,10.57
2023-04-15T03:32:34.978Z,10.40
2023-04-15T03:35:02.262Z,11.07
2023-04-15T03:37:29.391Z,12.45
2023-04-15T03:39:56.518Z,12.25
2023-04-15T03:42:23.899Z,11.95
2023-04-15T03:44:51.355Z,11.73
2023-04-15T03:47:18.432Z,13.35
2023-04-15T03:49:45.724Z,12.32
2023-04-15T03:52:12.799Z,12.88
2023-04-15T03:54:39.990Z,12.40
2023-04-15T03:57:07.133Z,14.23
2023-04-15T03:59:34.211Z,12.88
2023-04-15T04:02:01.370Z,13.23
2023-04-15T04:04:28.700Z,14.82
2023-04-15T04:06:55.990Z,14.45
2023-04-15T04:09:23.059Z,12.50
2023-04-15T04:11:50.268Z,12.55
2023-04-15T04:14:17.372Z,13.57
2023-04-15T04:16:45.249Z,11.32
2023-04-15T04:19:12.471Z,11.73
2023-04-15T04:21:39.664Z,12.18
2023-04-15T04:24:07.152Z,13.15
2023-04-15T04:26:34.271Z,12.38
2023-04-15T04:29:01.615Z,10.52
2023-04-15T04:31:28.973Z,13.85
2023-04-15T04:33:56.175Z,13.90
2023-04-15T04:36:23.373Z,11.68
2023-04-15T04:38:50.494Z,10.25
2023-04-15T04:41:17.659Z,11.07
2023-04-15T04:43:44.779Z,10.95
2023-04-15T04:46:12.837Z,9.48
2023-04-15T04:48:40.079Z,10.18
2023-04-15T04:51:08.150Z,9.80
2023-04-15T04:53:35.808Z,10.02
2023-04-15T04:56:02.986Z,10.05
2023-04-15T04:58:30.112Z,8.40
2023-04-15T05:00:57.322Z,7.82
2023-04-15T05:03:24.658Z,7.95
2023-04-15T05:05:51.848Z,10.48
2023-04-15T05:08:18.941Z,10.27
2023-04-15T05:10:46.163Z,10.70
2023-04-15T05:13:13.271Z,11.43
2023-04-15T05:15:41.397Z,11.73
2023-04-15T05:18:08.531Z,12.32
2023-04-15T05:20:35.732Z,12.20
2023-04-15T05:23:02.851Z,11.68
2023-04-15T05:25:30.064Z,12.80
2023-04-15T05:27:57.136Z,10.18
2023-04-15T05:30:24.203Z,11.95
2023-04-15T05:32:51.378Z,13.55
2023-04-15T05:35:19.071Z,13.43
2023-04-15T05:37:46.642Z,13.60
2023-04-15T05:40:14.360Z,10.95
2023-04-15T05:42:41.479Z,11.10
2023-04-15T05:45:09.259Z,11.13
2023-04-15T05:47:37.532Z,10.88
2023-04-15T05:50:04.997Z,13.15
2023-04-15T05:52:32.429Z,13.75
2023-04-15T05:54:59.587Z,13.07
2023-04-15T05:57:26.681Z,12.93
2023-04-15T05:59:54.007Z,13.63
2023-04-15T06:02:21.221Z,13.55
2023-04-15T06:04:48.567Z,12.85
2023-04-15T06:07:15.746Z,11.00
2023-04-15T06:09:42.838Z,10.40
2023-04-15T06:12:12.365Z,10.82
2023-04-15T06:14:40.581Z,10.73
2023-04-15T06:17:08.572Z,10.13
2023-04-15T06:19:39.075Z,11.75
2023-04-15T06:22:07.282Z,10.55
2023-04-15T06:24:34.597Z,12.23
2023-04-15T06:27:02.352Z,11.43
2023-04-15T06:29:29.713Z,10.23
2023-04-15T06:31:57.037Z,9.75
2023-04-15T06:34:24.117Z,8.75
2023-04-15T06:36:51.276Z,8.63
2023-04-15T06:39:18.483Z,8.63
2023-04-15T06:41:45.576Z,8.07
2023-04-15T06:44:12.685Z,6.35
2023-04-15T06:46:40.022Z,7.10
2023-04-15T06:49:07.091Z,5.85
2023-04-15T06:51:36.052Z,6.82
2023-04-15T06:54:05.885Z,6.65
2023-04-15T06:56:33.350Z,5.90
2023-04-15T06:59:00.885Z,6.15
2023-04-15T07:01:28.273Z,6.53
2023-04-15T07:03:55.514Z,7.60
2023-04-15T07:06:22.585Z,6.35
2023-04-15T07:08:49.781Z,8.73
2023-04-15T07:11:17.474Z,6.60
2023-04-15T07:13:44.548Z,6.65
2023-04-15T07:16:11.714Z,6.18
2023-04-15T07:18:38.839Z,6.20
2023-04-15T07:21:05.964Z,7.00
2023-04-15T07:23:33.186Z,6.25
2023-04-15T07:26:00.992Z,6.63
2023-04-15T07:28:28.176Z,5.97
2023-04-15T07:30:57.282Z,7.45
2023-04-15T07:33:24.390Z,8.50
2023-04-15T07:35:51.600Z,8.15
2023-04-15T07:38:18.721Z,7.82
2023-04-15T07:40:46.905Z,8.40
2023-04-15T07:43:14.478Z,6.78
2023-04-15T07:45:41.690Z,6.35
2023-04-15T07:48:08.936Z,8.15
2023-04-15T07:50:36.035Z,8.02
2023-04-15T07:53:03.297Z,6.10
2023-04-15T07:55:30.732Z,5.35
2023-04-15T07:57:57.804Z,5.43
2023-04-15T08:00:24.924Z,4.50
2023-04-15T08:02:53.263Z,5.00
2023-04-15T08:05:20.996Z,5.60
2023-04-15T08:07:48.208Z,5.78
2023-04-15T08:10:15.531Z,5.82
2023-04-15T08:12:42.836Z,6.60
2023-04-15T08:15:10.237Z,6.03
2023-04-15T08:17:37.346Z,5.85
2023-04-15T08:20:05.909Z,5.45
2023-04-15T08:22:33.132Z,5.22
2023-04-15T08:25:00.217Z,5.35
2023-04-15T08:27:27.398Z,7.32
2023-04-15T08:29:54.608Z,5.80
2023-04-15T08:32:22.533Z,4.97
2023-04-15T08:34:49.684Z,5.30
2023-04-15T08:37:17.254Z,5.35
2023-04-15T08:39:45.322Z,4.35
2023-04-15T08:42:13.555Z,4.78
2023-04-15T08:44:40.756Z,6.70
2023-04-15T08:47:09.551Z,5.82
2023-04-15T08:49:39.840Z,6.00
2023-04-15T08:52:07.468Z,6.45
2023-04-15T08:54:34.598Z,6.63
2023-04-15T08:57:02.486Z,5.60
2023-04-15T08:59:31.381Z,5.75
2023-04-15T09:01:59.032Z,5.82
2023-04-15T09:04:26.309Z,6.50
2023-04-15T09:06:53.470Z,5.95
2023-04-15T09:09:20.612Z,5.43
2023-04-15T09:11:49.932Z,7.35
2023-04-15T09:14:17.426Z,6.43
2023-04-15T09:16:57.557Z,5.70
2023-04-15T09:19:26.243Z,5.90
2023-04-15T09:21:57.296Z,7.53
2023-04-15T09:24:27.086Z,5.70
2023-04-15T09:26:58.259Z,5.93
2023-04-15T09:29:26.772Z,5.35
2023-04-15T09:31:53.969Z,5.53
2023-04-15T09:34:21.682Z,5.78
2023-04-15T09:36:51.810Z,4.93
2023-04-15T09:39:18.922Z,6.88
2023-04-15T09:41:46.053Z,5.80
2023-04-15T09:44:25.992Z,7.30
2023-04-15T09:46:53.603Z,6.28
2023-04-15T09:49:20.958Z,6.18
2023-04-15T09:52:01.457Z,5.75
2023-04-15T09:54:36.438Z,6.05
2023-04-15T09:57:13.157Z,4.55
2023-04-15T09:59:40.488Z,3.92
2023-04-15T10:02:07.897Z,4.65
2023-04-15T10:04:37.513Z,4.97
2023-04-15T10:07:06.171Z,5.10
2023-04-15T10:09:34.773Z,5.82
2023-04-15T10:12:02.212Z,5.05
2023-04-15T10:14:33.386Z,5.00
2023-04-15T10:17:03.150Z,4.40
2023-04-15T10:19:31.685Z,4.57
2023-04-15T10:21:59.726Z,4.75
2023-04-15T10:24:27.012Z,4.07
2023-04-15T10:26:55.542Z,5.22
2023-04-15T10:29:22.801Z,5.00
2023-04-15T10:31:50.178Z,5.05
2023-04-15T10:34:17.816Z,5.72
2023-04-15T10:36:47.052Z,4.78
2023-04-15T10:39:33.131Z,5.15
2023-04-15T10:42:26.681Z,5.10
2023-04-15T10:44:57.338Z,4.95
2023-04-15T10:47:25.544Z,4.38
2023-04-15T10:49:53.980Z,4.68
2023-04-15T10:52:25.821Z,4.97
2023-04-15T10:55:03.305Z,5.43
2023-04-15T10:57:35.573Z,4.55
2023-04-15T11:00:05.005Z,6.35
2023-04-15T11:02:45.892Z,5.35
2023-04-15T11:05:13.877Z,3.67
2023-04-15T11:07:41.083Z,5.35
2023-04-15T11:10:14.303Z,4.85
2023-04-15T11:12:42.238Z,4.90
2023-04-15T11:15:27.913Z,5.05
2023-04-15T11:17:54.998Z,5.70
2023-04-15T11:20:22.161Z,5.63
2023-04-15T11:22:51.717Z,5.07
2023-04-15T11:25:25.959Z,5.22
2023-04-15T11:27:54.367Z,5.60
2023-04-15T11:30:25.840Z,6.78
2023-04-15T11:32:54.310Z,6.40
2023-04-15T11:35:22.097Z,6.22
2023-04-15T11:37:50.206Z,5.47
2023-04-15T11:40:18.095Z,5.80
2023-04-15T11:42:49.642Z,3.55
2023-04-15T11:45:16.951Z,4.88
2023-04-15T11:47:44.115Z,5.60
2023-04-15T11:50:21.610Z,5.95
2023-04-15T11:52:58.373Z,6.03
2023-04-15T11:55:26.214Z,5.45
2023-04-15T11:58:12.826Z,5.00
2023-04-15T12:00:41.234Z,5.68
2023-04-15T12:03:15.470Z,5.03
2023-04-15T12:06:02.832Z,5.43
2023-04-15T12:08:49.075Z,4.93
2023-04-15T12:11:29.745Z,6.07
2023-04-15T12:13:58.180Z,5.07
2023-04-15T12:16:26.215Z,4.30
2023-04-15T12:18:55.988Z,5.65
2023-04-15T12:21:23.949Z,5.60
2023-04-15T12:23:51.489Z,5.15
2023-04-15T12:26:19.260Z,5.70
2023-04-15T12:28:46.783Z,3.90
2023-04-15T12:31:15.220Z,5.85
2023-04-15T12:33:42.426Z,5.30
2023-04-15T12:36:09.551Z,5.28
2023-04-15T12:38:36.681Z,5.93
2023-04-15T12:41:03.884Z,5.90
2023-04-15T12:43:31.377Z,5.45
2023-04-15T12:45:58.551Z,6.10
2023-04-15T12:48:25.724Z,7.85
2023-04-15T12:50:52.806Z,7.15
2023-04-15T12:53:19.899Z,6.70
2023-04-15T12:55:47.205Z,6.72
2023-04-15T12:58:14.273Z,6.53
2023-04-15T13:00:41.392Z,5.00
2023-04-15T13:03:08.606Z,5.18
2023-04-15T13:05:37.069Z,5.40
2023-04-15T13:08:04.163Z,6.10
2023-04-15T13:10:31.865Z,5.97
2023-04-15T13:12:59.029Z,4.80
2023-04-15T13:15:26.185Z,5.55
2023-04-15T13:17:53.957Z,5.10
2023-04-15T13:20:21.241Z,5.50
2023-04-15T13:22:48.319Z,5.30
2023-04-15T13:25:15.659Z,5.97
2023-04-15T13:27:42.747Z,6.30
2023-04-15T13:30:10.013Z,6.07
2023-04-15T13:32:37.203Z,4.70
2023-04-15T13:35:05.204Z,4.85
2023-04-15T13:37:32.305Z,5.85
2023-04-15T13:39:59.503Z,4.38
2023-04-15T13:42:27.523Z,5.47
2023-04-15T13:44:54.702Z,5.68
2023-04-15T13:47:22.079Z,6.28
2023-04-15T13:49:50.550Z,4.95
2023-04-15T13:52:17.617Z,5.57
2023-04-15T13:54:44.753Z,5.70
2023-04-15T13:57:11.872Z,5.78
2023-04-15T13:59:38.977Z,6.03
2023-04-15T14:02:06.297Z,8.85
2023-04-15T14:04:33.980Z,6.60
2023-04-15T14:07:02.769Z,6.10
2023-04-15T14:09:31.187Z,5.47
2023-04-15T14:11:59.946Z,6.18
2023-04-15T14:14:27.068Z,6.25
2023-04-15T14:16:54.273Z,7.80
2023-04-15T14:19:22.048Z,8.43
2023-04-15T14:21:50.401Z,7.55
2023-04-15T14:24:17.555Z,7.18
2023-04-15T14:26:44.758Z,6.40
2023-04-15T14:29:11.836Z,5.78
2023-04-15T14:31:39.501Z,5.72
2023-04-15T14:34:08.623Z,6.25
2023-04-15T14:36:36.181Z,6.03
2023-04-15T14:39:04.851Z,5.85
2023-04-15T14:41:32.097Z,6.22
2023-04-15T14:43:59.167Z,6.03
2023-04-15T14:46:26.692Z,5.55
2023-04-15T14:48:54.010Z,6.35
2023-04-15T14:51:21.175Z,6.63
2023-04-15T14:53:48.300Z,5.93
2023-04-15T14:56:15.395Z,7.55
2023-04-15T14:58:42.452Z,4.65
2023-04-15T15:01:09.796Z,6.13
2023-04-15T15:03:37.040Z,6.50
2023-04-15T15:06:04.232Z,6.22
2023-04-15T15:08:31.395Z,6.70
2023-04-15T15:10:58.496Z,5.55
2023-04-15T15:13:25.620Z,6.07
2023-04-15T15:15:52.929Z,5.63
2023-04-15T15:18:20.136Z,6.55
2023-04-15T15:20:47.735Z,6.03
2023-04-15T15:23:14.912Z,6.68
2023-04-15T15:25:42.012Z,6.40
2023-04-15T15:28:09.118Z,5.80
2023-04-15T15:30:36.302Z,6.53
2023-04-15T15:33:03.489Z,7.35
2023-04-15T15:35:30.726Z,7.53
2023-04-15T15:37:57.991Z,6.97
2023-04-15T15:40:25.080Z,8.00
2023-04-15T15:42:52.258Z,7.85
2023-04-15T15:45:19.440Z,7.95
2023-04-15T15:47:46.618Z,7.25
2023-04-15T15:50:14.514Z,7.45
2023-04-15T15:52:41.705Z,7.20
2023-04-15T15:55:09.106Z,7.40
2023-04-15T15:57:36.670Z,8.05
2023-04-15T16:00:11.834Z,7.07
2023-04-15T16:05:10.174Z,7.72
2023-04-15T16:07:37.319Z,8.48
2023-04-15T16:10:04.549Z,7.97
2023-04-15T16:12:33.278Z,7.93
2023-04-15T16:15:01.910Z,10.77
2023-04-15T16:17:29.037Z,10.50
2023-04-15T16:20:00.878Z,9.55
2023-04-15T16:22:28.502Z,9.88
2023-04-15T16:24:55.677Z,8.93
2023-04-15T16:27:22.808Z,9.40
2023-04-15T16:29:49.878Z,10.52
2023-04-15T16:32:17.189Z,11.27
2023-04-15T16:34:44.454Z,10.80
2023-04-15T16:37:11.536Z,10.63
2023-04-15T16:39:38.893Z,9.88
2023-04-15T16:42:06.941Z,9.43
2023-04-15T16:44:34.068Z,8.73
2023-04-15T16:47:02.981Z,9.20
2023-04-15T16:49:30.359Z,9.85
2023-04-15T16:51:58.020Z,8.85
2023-04-15T16:54:25.202Z,10.02
2023-04-15T16:56:52.364Z,10.60
2023-04-15T16:59:19.426Z,10.93
2023-04-15T17:01:46.825Z,10.50
2023-04-15T17:04:14.206Z,10.27
2023-04-15T17:06:41.516Z,8.88
2023-04-15T17:09:08.604Z,10.00
2023-04-15T17:11:38.090Z,8.68
2023-04-15T17:14:05.804Z,8.88
2023-04-15T17:16:32.947Z,9.60
2023-04-15T17:19:00.066Z,9.23
2023-04-15T17:21:27.426Z,9.02
2023-04-15T17:23:54.617Z,9.13
2023-04-15T17:26:22.181Z,9.50
2023-04-15T17:28:49.243Z,10.38
2023-04-15T17:31:16.353Z,8.85
2023-04-15T17:34:00.856Z,10.20
2023-04-15T17:36:32.165Z,10.27
2023-04-15T17:38:59.261Z,11.05
2023-04-15T17:41:26.459Z,10.77
2023-04-15T17:43:53.516Z,10.60
2023-04-15T17:46:20.696Z,9.63
2023-04-15T17:48:47.977Z,11.05
2023-04-15T17:51:15.186Z,13.18
2023-04-15T17:53:42.363Z,14.13
2023-04-15T17:56:09.457Z,13.48
2023-04-15T17:58:36.582Z,12.98
2023-04-15T18:01:03.778Z,12.45
2023-04-15T18:03:30.984Z,13.15
2023-04-15T18:05:58.160Z,12.35
2023-04-15T18:08:25.484Z,12.07
2023-04-15T18:10:52.571Z,12.30
2023-04-15T18:13:19.647Z,13.05
2023-04-15T18:15:48.664Z,13.60
2023-04-15T18:18:15.889Z,12.82
2023-04-15T18:20:42.961Z,13.82
2023-04-15T18:23:10.730Z,11.68
2023-04-15T18:25:38.402Z,12.77
2023-04-15T18:28:06.051Z,12.45
2023-04-15T18:30:33.296Z,10.48
2023-04-15T18:33:01.037Z,11.98
2023-04-15T18:35:31.615Z,13.45
2023-04-15T18:37:59.073Z,15.10
2023-04-15T18:40:26.308Z,21.23
2023-04-15T18:42:53.600Z,18.40
2023-04-15T18:45:21.171Z,21.20
2023-04-15T18:47:48.746Z,20.13
2023-04-15T18:50:16.090Z,18.30
2023-04-15T18:52:43.327Z,13.40
2023-04-15T18:55:10.550Z,16.90
2023-04-15T18:57:42.561Z,17.85
2023-04-15T19:00:12.534Z,16.15
2023-04-15T19:02:40.409Z,14.25
2023-04-15T19:05:07.694Z,14.27
2023-04-15T19:07:35.463Z,13.02
2023-04-15T19:10:03.496Z,14.32
2023-04-15T19:12:30.704Z,15.57
2023-04-15T19:14:57.904Z,15.52
2023-04-15T19:17:25.117Z,14.77
2023-04-15T19:19:52.197Z,12.90
2023-04-15T19:22:19.385Z,13.52
2023-04-15T19:24:46.769Z,13.20
2023-04-15T19:27:13.917Z,10.60
2023-04-15T19:29:41.244Z,12.68
2023-04-15T19:32:08.473Z,11.52
2023-04-15T19:34:35.826Z,13.43
2023-04-15T19:37:02.953Z,12.27
2023-04-15T19:39:30.109Z,12.55
2023-04-15T19:41:58.855Z,12.02
2023-04-15T19:44:26.020Z,12.93
2023-04-15T19:46:53.593Z,11.05
2023-04-15T19:49:20.793Z,14.23
2023-04-15T19:51:50.992Z,14.68
2023-04-15T19:54:18.211Z,15.65
2023-04-15T19:56:45.361Z,17.85
2023-04-15T19:59:12.917Z,15.85
2023-04-15T20:01:40.154Z,17.83
2023-04-15T20:04:07.840Z,18.33
2023-04-15T20:06:35.114Z,17.83
2023-04-15T20:09:02.282Z,19.65
2023-04-15T20:12:47.008Z,17.35
2023-04-15T20:14:17.814Z,19.17
2023-04-15T20:16:45.028Z,18.27
2023-04-15T20:19:13.277Z,19.77
2023-04-15T20:21:40.413Z,19.15
2023-04-15T20:24:07.718Z,18.98
2023-04-15T20:26:34.856Z,17.48
2023-04-15T20:29:02.193Z,19.00
2023-04-15T20:31:29.381Z,16.60
2023-04-15T20:33:56.518Z,16.55
2023-04-15T20:36:23.684Z,17.10
2023-04-15T20:38:50.760Z,17.20
2023-04-15T20:41:17.820Z,15.30
2023-04-15T20:43:44.988Z,15.40
2023-04-15T20:46:20.636Z,16.25
2023-04-15T20:48:48.582Z,15.02
2023-04-15T20:51:15.684Z,16.58
2023-04-15T20:53:42.798Z,14.60
2023-04-15T20:56:10.038Z,15.15
2023-04-15T20:58:38.572Z,15.82
2023-04-15T21:01:05.743Z,15.68
2023-04-15T21:03:33.100Z,14.70
2023-04-15T21:06:00.426Z,15.50
2023-04-15T21:08:29.736Z,16.13
2023-04-15T21:10:57.363Z,17.33
2023-04-15T21:13:24.967Z,17.30
2023-04-15T21:15:54.152Z,20.83
2023-04-15T21:18:21.871Z,20.63
2023-04-15T21:21:01.823Z,19.58
2023-04-15T21:23:29.906Z,20.83
2023-04-15T21:25:57.454Z,20.08
2023-04-15T21:28:24.610Z,22.25
2023-04-15T21:30:51.789Z,18.90
2023-04-15T21:33:20.323Z,22.38
2023-04-15T21:35:47.477Z,16.83
2023-04-15T21:38:14.661Z,22.83
2023-04-15T21:40:41.755Z,22.70
2023-04-15T21:43:08.896Z,23.40
2023-04-15T21:45:38.624Z,18.85
2023-04-15T21:48:08.061Z,20.90
2023-04-15T21:50:38.665Z,19.88
2023-04-15T21:53:08.017Z,19.75
2023-04-15T21:55:35.203Z,21.40
2023-04-15T21:58:02.301Z,20.05
2023-04-15T22:00:29.404Z,19.50
2023-04-15T22:02:56.694Z,18.33
2023-04-15T22:05:23.881Z,21.52
2023-04-15T22:07:51.081Z,20.23
2023-04-15T22:10:19.442Z,18.42
2023-04-15T22:12:46.545Z,21.52
2023-04-15T22:15:13.678Z,19.42
2023-04-15T22:17:41.050Z,22.25
2023-04-15T22:20:08.527Z,21.90
2023-04-15T22:22:43.259Z,21.13
2023-04-15T22:25:10.825Z,22.23
2023-04-15T22:27:38.172Z,22.38
2023-04-15T22:30:05.648Z,21.63
2023-04-15T22:32:32.838Z,22.13
2023-04-15T22:35:00.169Z,19.08
2023-04-15T22:37:30.448Z,22.88
2023-04-15T22:39:57.880Z,23.53
2023-04-15T22:42:25.039Z,22.45
2023-04-15T22:44:52.130Z,22.77
2023-04-15T22:47:19.416Z,23.10
2023-04-15T22:49:46.592Z,23.98
2023-04-15T22:52:23.418Z,25.30
2023-04-15T22:54:56.958Z,24.75
2023-04-15T22:57:24.117Z,24.67
2023-04-15T22:59:51.360Z,24.98
2023-04-15T23:02:18.602Z,25.95
2023-04-15T23:04:45.961Z,26.63
2023-04-15T23:07:13.116Z,27.20
2023-04-15T23:09:40.570Z,27.45
2023-04-15T23:12:07.730Z,26.40
2023-04-15T23:14:34.835Z,29.33
2023-04-15T23:17:01.947Z,29.50
2023-04-15T23:19:29.084Z,30.08
2023-04-15T23:21:56.195Z,30.73
2023-04-15T23:24:23.371Z,30.20
2023-04-15T23:26:50.526Z,30.10
2023-04-15T23:29:17.604Z,29.75
2023-04-15T23:31:44.787Z,30.88
2023-04-15T23:34:11.909Z,28.73
2023-04-15T23:36:39.021Z,30.52
2023-04-15T23:39:06.160Z,30.52
2023-04-15T23:41:33.265Z,26.65
2023-04-15T23:44:00.336Z,30.80
2023-04-15T23:46:27.631Z,29.63
2023-04-15T23:48:54.831Z,28.70
2023-04-15T23:51:21.895Z,28.15
2023-04-15T23:53:50.072Z,29.98
2023-04-15T23:56:17.167Z,30.45
2023-04-15T23:58:44.334Z,28.33
